createdAt,value
2018-08-30T00:00:05.722Z,577.37
2018-08-30T00:02:32.854Z,585.13
2018-08-30T00:04:59.994Z,575.17
2018-08-30T00:07:27.114Z,580.60
2018-08-30T00:09:54.243Z,575.70
2018-08-30T00:12:21.435Z,561.57
2018-08-30T00:14:48.606Z,558.47
2018-08-30T00:17:15.734Z,563.60
2018-08-30T00:19:42.869Z,578.60
2018-08-30T00:22:10.166Z,553.43
2018-08-30T00:24:37.293Z,580.13
2018-08-30T00:27:04.472Z,576.13
2018-08-30T00:29:31.603Z,569.03
2018-08-30T00:31:58.754Z,552.27
2018-08-30T00:34:26.006Z,550.60
2018-08-30T00:36:53.205Z,548.10
2018-08-30T00:39:20.334Z,561.97
2018-08-30T00:41:47.467Z,562.53
2018-08-30T00:44:14.610Z,453.67
2018-08-30T00:46:41.747Z,528.07
2018-08-30T00:49:08.893Z,419.00
2018-08-30T00:51:36.010Z,522.10
2018-08-30T00:54:03.162Z,418.27
2018-08-30T00:56:30.289Z,489.17
2018-08-30T00:58:57.507Z,523.60
2018-08-30T01:01:24.641Z,520.73
2018-08-30T01:03:51.807Z,435.33
2018-08-30T01:06:18.955Z,518.30
2018-08-30T01:08:46.106Z,549.10
2018-08-30T01:11:13.259Z,527.63
2018-08-30T01:13:40.382Z,477.33
2018-08-30T01:16:07.503Z,566.07
2018-08-30T01:18:34.658Z,508.67
2018-08-30T01:21:01.798Z,385.43
2018-08-30T01:23:28.961Z,566.97
2018-08-30T01:25:56.086Z,563.53
2018-08-30T01:28:23.254Z,561.03
2018-08-30T01:30:50.435Z,578.67
2018-08-30T01:33:17.599Z,564.57
2018-08-30T01:35:44.746Z,525.60
2018-08-30T01:38:11.861Z,568.63
2018-08-30T01:40:39.049Z,580.30
2018-08-30T01:43:06.173Z,564.07
2018-08-30T01:45:33.329Z,584.53
2018-08-30T01:48:00.475Z,566.90
2018-08-30T01:50:27.673Z,563.53
2018-08-30T01:52:54.793Z,462.43
2018-08-30T01:55:21.937Z,564.83
2018-08-30T01:57:49.042Z,568.90
2018-08-30T02:00:16.184Z,563.03
2018-08-30T02:02:43.314Z,470.23
2018-08-30T02:05:10.414Z,537.17
2018-08-30T02:07:37.525Z,465.10
2018-08-30T02:10:05.089Z,562.87
2018-08-30T02:12:32.191Z,541.60
2018-08-30T02:14:59.289Z,457.23
2018-08-30T02:17:26.429Z,487.77
2018-08-30T02:19:53.544Z,529.43
2018-08-30T02:22:20.685Z,531.80
2018-08-30T02:24:47.784Z,533.83
2018-08-30T02:27:14.989Z,453.90
2018-08-30T02:29:42.094Z,529.83
2018-08-30T02:32:09.203Z,537.83
2018-08-30T02:34:36.309Z,537.60
2018-08-30T02:37:03.444Z,526.83
2018-08-30T02:39:30.574Z,528.73
2018-08-30T02:41:57.705Z,451.43
2018-08-30T02:44:24.831Z,530.63
2018-08-30T02:46:51.982Z,532.13
2018-08-30T02:49:19.122Z,530.37
2018-08-30T02:51:46.229Z,535.70
2018-08-30T02:54:13.485Z,541.13
2018-08-30T02:56:40.593Z,537.80
2018-08-30T02:59:07.720Z,458.93
2018-08-30T03:01:34.844Z,468.17
2018-08-30T03:04:02.265Z,544.27
2018-08-30T03:06:29.377Z,529.30
2018-08-30T03:08:56.481Z,539.80
2018-08-30T03:11:23.919Z,458.33
2018-08-30T03:13:51.046Z,552.93
2018-08-30T03:16:18.253Z,542.50
2018-08-30T03:18:45.586Z,542.70
2018-08-30T03:21:12.704Z,532.93
2018-08-30T03:23:39.946Z,541.37
2018-08-30T03:26:07.233Z,487.33
2018-08-30T03:28:34.333Z,544.43
2018-08-30T03:31:01.659Z,460.13
2018-08-30T03:33:28.784Z,533.10
2018-08-30T03:35:55.926Z,530.97
2018-08-30T03:38:23.161Z,538.10
2018-08-30T03:40:50.270Z,542.03
2018-08-30T03:43:17.373Z,450.37
2018-08-30T03:45:44.749Z,531.13
2018-08-30T03:48:11.913Z,453.03
2018-08-30T03:50:39.033Z,530.50
2018-08-30T03:53:06.685Z,530.60
2018-08-30T03:55:33.813Z,454.43
2018-08-30T03:58:00.930Z,532.47
2018-08-30T04:00:28.205Z,448.80
2018-08-30T04:02:55.320Z,529.83
2018-08-30T04:05:22.586Z,523.30
2018-08-30T04:07:49.721Z,523.03
2018-08-30T04:10:16.841Z,444.33
2018-08-30T04:12:44.205Z,522.13
2018-08-30T04:15:11.326Z,447.70
2018-08-30T04:17:38.421Z,447.57
2018-08-30T04:20:05.827Z,526.50
2018-08-30T04:22:32.945Z,528.47
2018-08-30T04:25:00.057Z,522.07
2018-08-30T04:27:27.666Z,481.47
2018-08-30T04:29:54.765Z,443.13
2018-08-30T04:32:21.889Z,522.60
2018-08-30T04:34:49.321Z,518.60
2018-08-30T04:37:16.526Z,521.33
2018-08-30T04:39:43.630Z,519.07
2018-08-30T04:42:11.103Z,522.27
2018-08-30T04:44:38.162Z,524.13
2018-08-30T04:47:05.282Z,520.50
2018-08-30T04:49:32.479Z,521.53
2018-08-30T04:51:59.589Z,523.33
2018-08-30T04:54:26.869Z,525.37
2018-08-30T04:56:53.994Z,521.53
2018-08-30T04:59:21.101Z,525.17
2018-08-30T05:01:48.457Z,474.50
2018-08-30T05:04:15.557Z,441.10
2018-08-30T05:06:42.658Z,518.27
2018-08-30T05:09:11.118Z,520.07
2018-08-30T05:11:38.243Z,517.80
2018-08-30T05:14:05.613Z,442.13
2018-08-30T05:16:33.294Z,514.27
2018-08-30T05:19:00.309Z,474.47
2018-08-30T05:21:27.427Z,515.47
2018-08-30T05:23:55.037Z,440.80
2018-08-30T05:26:22.150Z,510.80
2018-08-30T05:28:49.250Z,514.10
2018-08-30T05:31:17.001Z,437.33
2018-08-30T05:33:44.118Z,441.13
2018-08-30T05:36:11.226Z,517.37
2018-08-30T05:38:38.917Z,515.20
2018-08-30T05:41:06.065Z,509.87
2018-08-30T05:43:33.169Z,515.67
2018-08-30T05:46:00.760Z,511.57
2018-08-30T05:48:27.861Z,437.40
2018-08-30T05:50:54.964Z,437.73
2018-08-30T05:53:22.289Z,508.97
2018-08-30T05:55:49.420Z,505.80
2018-08-30T05:58:16.518Z,513.70
2018-08-30T06:00:43.802Z,510.60
2018-08-30T06:03:10.923Z,441.33
2018-08-30T06:05:38.218Z,513.60
2018-08-30T06:08:05.317Z,512.00
2018-08-30T06:10:32.716Z,509.90
2018-08-30T06:12:59.912Z,514.90
2018-08-30T06:15:27.027Z,438.23
2018-08-30T06:17:54.294Z,516.13
2018-08-30T06:20:22.053Z,447.47
2018-08-30T06:22:49.178Z,516.47
2018-08-30T06:25:16.293Z,508.90
2018-08-30T06:27:43.753Z,438.97
2018-08-30T06:30:11.193Z,514.97
2018-08-30T06:32:38.330Z,437.53
2018-08-30T06:35:05.924Z,511.27
2018-08-30T06:37:33.074Z,517.67
2018-08-30T06:40:00.205Z,517.77
2018-08-30T06:42:27.856Z,514.03
2018-08-30T06:44:54.961Z,514.93
2018-08-30T06:47:22.093Z,440.50
2018-08-30T06:49:49.497Z,512.80
2018-08-30T06:52:16.603Z,437.87
2018-08-30T06:54:43.717Z,511.63
2018-08-30T06:57:10.956Z,513.43
2018-08-30T06:59:38.053Z,511.70
2018-08-30T07:02:05.654Z,519.27
2018-08-30T07:04:33.030Z,514.33
2018-08-30T07:07:00.129Z,508.50
2018-08-30T07:09:27.673Z,438.60
2018-08-30T07:11:54.841Z,513.73
2018-08-30T07:14:21.942Z,513.27
2018-08-30T07:16:49.145Z,507.80
2018-08-30T07:19:16.253Z,512.30
2018-08-30T07:21:43.354Z,513.57
2018-08-30T07:24:10.780Z,511.03
2018-08-30T07:26:37.825Z,513.63
2018-08-30T07:29:04.933Z,508.57
2018-08-30T07:31:32.277Z,515.57
2018-08-30T07:33:59.393Z,516.60
2018-08-30T07:36:26.484Z,517.80
2018-08-30T07:38:53.866Z,510.13
2018-08-30T07:41:20.993Z,522.87
2018-08-30T07:43:48.336Z,513.50
2018-08-30T07:46:15.693Z,513.63
2018-08-30T07:48:42.793Z,511.77
2018-08-30T07:51:10.151Z,517.10
2018-08-30T07:53:37.244Z,520.53
2018-08-30T07:56:04.510Z,515.43
2018-08-30T07:58:32.253Z,515.83
2018-08-30T08:00:59.598Z,512.53
2018-08-30T08:03:26.702Z,524.17
2018-08-30T08:05:54.339Z,526.23
2018-08-30T08:08:21.381Z,535.23
2018-08-30T08:10:48.516Z,492.83
2018-08-30T08:13:15.982Z,553.33
2018-08-30T08:15:43.105Z,558.83
2018-08-30T08:18:10.204Z,556.33
2018-08-30T08:20:37.945Z,549.50
2018-08-30T08:23:05.095Z,546.20
2018-08-30T08:25:32.202Z,545.30
2018-08-30T08:27:59.833Z,544.57
2018-08-30T08:30:26.929Z,494.83
2018-08-30T08:32:54.601Z,544.23
2018-08-30T08:35:22.373Z,537.53
2018-08-30T08:37:49.561Z,542.27
2018-08-30T08:40:16.670Z,540.10
2018-08-30T08:42:44.486Z,543.13
2018-08-30T08:45:11.621Z,544.90
2018-08-30T08:47:38.739Z,497.50
2018-08-30T08:50:06.817Z,539.47
2018-08-30T08:52:33.923Z,548.03
2018-08-30T08:55:01.047Z,545.60
2018-08-30T08:57:28.885Z,499.17
2018-08-30T08:59:56.014Z,541.40
2018-08-30T09:02:23.121Z,543.53
2018-08-30T09:04:51.165Z,541.53
2018-08-30T09:07:18.306Z,540.27
2018-08-30T09:09:45.409Z,538.97
2018-08-30T09:12:13.145Z,498.57
2018-08-30T09:14:40.249Z,491.20
2018-08-30T09:17:07.381Z,545.80
2018-08-30T09:19:34.993Z,552.30
2018-08-30T09:22:02.109Z,506.20
2018-08-30T09:24:29.221Z,557.87
2018-08-30T09:26:56.856Z,559.03
2018-08-30T09:29:23.980Z,564.73
2018-08-30T09:31:51.262Z,573.87
2018-08-30T09:34:18.706Z,515.13
2018-08-30T09:36:45.838Z,568.40
2018-08-30T09:39:12.957Z,568.47
2018-08-30T09:41:40.450Z,565.73
2018-08-30T09:44:07.590Z,518.00
2018-08-30T09:46:34.954Z,584.70
2018-08-30T09:49:02.614Z,570.60
2018-08-30T09:51:29.745Z,566.57
2018-08-30T09:53:56.997Z,567.27
2018-08-30T09:56:24.269Z,519.10
2018-08-30T09:58:51.393Z,569.00
2018-08-30T10:01:24.613Z,561.47
2018-08-30T10:03:51.841Z,564.97
2018-08-30T10:06:19.129Z,582.53
2018-08-30T10:08:46.249Z,575.53
2018-08-30T10:11:13.357Z,583.00
2018-08-30T10:13:40.869Z,576.27
2018-08-30T10:16:07.990Z,575.80
2018-08-30T10:18:35.101Z,580.47
2018-08-30T10:21:02.273Z,570.17
2018-08-30T10:23:29.398Z,580.60
2018-08-30T10:25:56.496Z,579.70
2018-08-30T10:28:23.605Z,581.63
2018-08-30T10:30:50.721Z,573.17
2018-08-30T10:33:18.277Z,566.33
2018-08-30T10:35:45.385Z,572.80
2018-08-30T10:38:12.500Z,562.20
2018-08-30T10:40:39.956Z,569.70
2018-08-30T10:43:07.082Z,558.70
2018-08-30T10:45:34.196Z,558.40
2018-08-30T10:48:01.741Z,559.87
2018-08-30T10:50:28.920Z,565.60
2018-08-30T10:52:56.029Z,582.97
2018-08-30T10:55:23.621Z,586.43
2018-08-30T10:57:50.801Z,574.47
2018-08-30T11:00:17.905Z,573.70
2018-08-30T11:02:45.361Z,580.77
2018-08-30T11:05:12.467Z,593.97
2018-08-30T11:07:39.609Z,657.93
2018-08-30T11:10:07.022Z,707.37
2018-08-30T11:12:34.141Z,679.10
2018-08-30T11:15:01.246Z,680.57
2018-08-30T11:17:28.365Z,677.40
2018-08-30T11:19:55.457Z,697.50
2018-08-30T11:22:22.949Z,765.33
2018-08-30T11:24:50.064Z,679.43
2018-08-30T11:27:17.324Z,668.50
2018-08-30T11:29:44.813Z,626.33
2018-08-30T11:32:11.905Z,651.83
2018-08-30T11:34:39.028Z,602.83
2018-08-30T11:37:06.413Z,597.73
2018-08-30T11:39:33.538Z,601.87
2018-08-30T11:42:00.638Z,586.17
2018-08-30T11:44:27.941Z,603.13
2018-08-30T11:46:55.036Z,597.00
2018-08-30T11:49:22.166Z,611.77
2018-08-30T11:51:49.353Z,603.43
2018-08-30T11:54:16.554Z,665.43
2018-08-30T11:56:43.585Z,696.80
2018-08-30T11:59:10.720Z,683.47
2018-08-30T12:01:37.833Z,727.93
2018-08-30T12:04:05.406Z,776.00
2018-08-30T12:06:32.529Z,732.30
2018-08-30T12:08:59.650Z,719.63
2018-08-30T12:11:27.331Z,750.00
2018-08-30T12:13:54.442Z,728.97
2018-08-30T12:16:21.657Z,823.47
2018-08-30T12:18:49.336Z,746.93
2018-08-30T12:21:16.465Z,850.97
2018-08-30T12:23:43.577Z,835.83
2018-08-30T12:26:11.281Z,730.43
2018-08-30T12:28:38.740Z,728.00
2018-08-30T12:31:05.818Z,699.47
2018-08-30T12:33:33.699Z,677.57
2018-08-30T12:36:00.929Z,657.27
2018-08-30T12:38:27.885Z,721.97
2018-08-30T12:40:55.498Z,710.03
2018-08-30T12:43:22.598Z,776.63
2018-08-30T12:45:49.707Z,677.07
2018-08-30T12:48:17.126Z,663.30
2018-08-30T12:50:44.394Z,743.07
2018-08-30T12:53:11.533Z,667.73
2018-08-30T12:55:38.841Z,648.07
2018-08-30T12:58:06.275Z,755.60
2018-08-30T13:00:33.937Z,668.70
2018-08-30T13:03:01.424Z,633.43
2018-08-30T13:05:28.648Z,625.50
2018-08-30T13:07:55.870Z,636.97
2018-08-30T13:10:23.078Z,668.47
2018-08-30T13:12:50.175Z,627.93
2018-08-30T13:15:17.663Z,700.40
2018-08-30T13:17:44.680Z,690.47
2018-08-30T13:20:11.801Z,716.13
2018-08-30T13:22:39.499Z,712.93
2018-08-30T13:25:06.445Z,755.03
2018-08-30T13:27:33.613Z,758.30
2018-08-30T13:30:01.347Z,841.30
2018-08-30T13:32:28.468Z,723.57
2018-08-30T13:34:55.665Z,742.17
2018-08-30T13:37:23.022Z,730.60
2018-08-30T13:39:50.121Z,726.27
2018-08-30T13:42:17.487Z,742.90
2018-08-30T13:44:44.940Z,717.57
2018-08-30T13:47:11.909Z,792.93
2018-08-30T13:49:38.910Z,748.87
2018-08-30T13:52:06.462Z,827.97
2018-08-30T13:54:33.684Z,819.20
2018-08-30T13:57:01.240Z,867.70
2018-08-30T13:59:28.377Z,827.90
2018-08-30T14:01:55.136Z,766.47
2018-08-30T14:04:22.648Z,853.53
2018-08-30T14:06:49.736Z,803.03
2018-08-30T14:09:16.874Z,754.23
2018-08-30T14:11:44.365Z,683.77
2018-08-30T14:14:11.623Z,686.90
2018-08-30T14:16:38.698Z,663.60
2018-08-30T14:19:05.950Z,610.73
2018-08-30T14:21:33.017Z,634.87
2018-08-30T14:24:00.130Z,605.60
2018-08-30T14:26:27.894Z,659.17
2018-08-30T14:28:55.332Z,602.33
2018-08-30T14:31:22.445Z,602.67
2018-08-30T14:33:49.960Z,602.90
2018-08-30T14:36:17.062Z,593.47
2018-08-30T14:38:44.296Z,588.13
2018-08-30T14:41:12.026Z,609.70
2018-08-30T14:43:38.966Z,603.43
2018-08-30T14:46:06.086Z,639.27
2018-08-30T14:48:33.593Z,605.53
2018-08-30T14:51:00.685Z,696.47
2018-08-30T14:53:27.812Z,694.27
2018-08-30T14:55:55.069Z,651.67
2018-08-30T14:58:22.161Z,613.10
2018-08-30T15:00:49.555Z,642.03
2018-08-30T15:03:17.015Z,637.60
2018-08-30T15:05:44.124Z,628.80
2018-08-30T15:08:11.245Z,712.77
2018-08-30T15:10:38.381Z,738.40
2018-08-30T15:13:05.501Z,688.80
2018-08-30T15:15:33.065Z,734.80
2018-08-30T15:18:00.168Z,683.43
2018-08-30T15:20:27.418Z,680.23
2018-08-30T15:22:55.065Z,719.83
2018-08-30T15:25:22.181Z,705.83
2018-08-30T15:27:49.301Z,642.87
2018-08-30T15:30:16.805Z,657.17
2018-08-30T15:32:43.909Z,625.57
2018-08-30T15:35:11.032Z,659.07
2018-08-30T15:37:38.552Z,652.30
2018-08-30T15:40:05.686Z,672.63
2018-08-30T15:42:32.794Z,693.23
2018-08-30T15:45:00.166Z,666.00
2018-08-30T15:47:27.463Z,715.07
2018-08-30T15:49:54.414Z,662.10
2018-08-30T15:52:21.609Z,641.47
2018-08-30T15:54:48.705Z,639.77
2018-08-30T15:57:16.018Z,601.87
2018-08-30T15:59:43.047Z,633.53
2018-08-30T16:02:10.181Z,611.07
2018-08-30T16:04:37.419Z,610.20
2018-08-30T16:07:04.550Z,594.93
2018-08-30T16:09:31.650Z,634.83
2018-08-30T16:11:59.734Z,595.80
2018-08-30T16:14:26.838Z,592.40
2018-08-30T16:16:53.945Z,595.43
2018-08-30T16:19:21.406Z,602.20
2018-08-30T16:21:48.541Z,584.57
2018-08-30T16:24:15.707Z,588.83
2018-08-30T16:26:43.362Z,593.60
2018-08-30T16:29:10.568Z,597.13
2018-08-30T16:31:37.621Z,594.83
2018-08-30T16:34:04.926Z,583.90
2018-08-30T16:36:32.164Z,584.87
2018-08-30T16:38:59.352Z,579.47
2018-08-30T16:41:26.677Z,583.87
2018-08-30T16:43:53.872Z,576.20
2018-08-30T16:46:20.893Z,578.23
2018-08-30T16:48:48.176Z,582.57
2018-08-30T16:51:15.172Z,580.53
2018-08-30T16:53:42.634Z,567.57
2018-08-30T16:56:09.930Z,566.57
2018-08-30T16:58:36.961Z,579.63
2018-08-30T17:01:04.358Z,568.40
2018-08-30T17:03:31.485Z,562.73
2018-08-30T17:05:58.590Z,560.80
2018-08-30T17:08:26.595Z,516.70
2018-08-30T17:10:53.558Z,514.53
2018-08-30T17:13:20.759Z,555.63
2018-08-30T17:15:48.678Z,556.13
2018-08-30T17:18:15.788Z,552.90
2018-08-30T17:20:46.647Z,556.27
2018-08-30T17:23:13.809Z,511.60
2018-08-30T17:25:42.275Z,553.53
2018-08-30T17:28:09.361Z,557.30
2018-08-30T17:30:36.737Z,550.60
2018-08-30T17:33:04.213Z,552.20
2018-08-30T17:35:31.342Z,471.83
2018-08-30T17:37:58.461Z,555.93
2018-08-30T17:40:25.776Z,549.53
2018-08-30T17:42:52.880Z,543.93
2018-08-30T17:45:20.385Z,544.97
2018-08-30T17:47:47.910Z,467.10
2018-08-30T17:50:15.546Z,544.30
2018-08-30T17:52:42.560Z,544.83
2018-08-30T17:55:10.567Z,545.33
2018-08-30T17:57:37.672Z,544.97
2018-08-30T18:00:06.686Z,538.67
2018-08-30T18:02:33.910Z,544.23
2018-08-30T18:05:01.037Z,546.27
2018-08-30T18:07:28.256Z,497.00
2018-08-30T18:09:55.800Z,538.87
2018-08-30T18:12:22.923Z,535.83
2018-08-30T18:14:50.026Z,462.10
2018-08-30T18:17:17.494Z,496.30
2018-08-30T18:19:44.618Z,539.33
2018-08-30T18:22:11.718Z,540.63
2018-08-30T18:24:39.294Z,539.43
2018-08-30T18:27:06.521Z,542.70
2018-08-30T18:29:33.626Z,541.37
2018-08-30T18:32:01.028Z,540.30
2018-08-30T18:34:28.138Z,536.07
2018-08-30T18:36:55.338Z,545.00
2018-08-30T18:39:22.625Z,541.20
2018-08-30T18:41:49.722Z,544.30
2018-08-30T18:44:16.985Z,537.47
2018-08-30T18:46:44.465Z,442.20
2018-08-30T18:49:11.593Z,535.57
2018-08-30T18:51:38.842Z,539.90
2018-08-30T18:54:05.998Z,492.53
2018-08-30T18:56:33.097Z,536.33
2018-08-30T18:59:00.697Z,462.43
2018-08-30T19:01:27.909Z,457.00
2018-08-30T19:03:55.029Z,533.80
2018-08-30T19:06:22.361Z,536.30
2018-08-30T19:08:49.689Z,492.17
2018-08-30T19:11:16.808Z,540.50
2018-08-30T19:13:44.333Z,544.33
2018-08-30T19:16:17.218Z,460.70
2018-08-30T19:18:50.344Z,494.83
2018-08-30T19:21:17.697Z,458.47
2018-08-30T19:23:44.801Z,535.43
2018-08-30T19:26:11.896Z,540.10
2018-08-30T19:28:39.433Z,535.90
2018-08-30T19:31:06.541Z,544.00
2018-08-30T19:33:33.654Z,537.53
2018-08-30T19:36:06.423Z,541.77
2018-08-30T19:38:33.614Z,541.07
2018-08-30T19:41:06.557Z,538.50
2018-08-30T19:43:33.897Z,537.90
2018-08-30T19:46:01.021Z,542.03
2018-08-30T19:48:28.239Z,501.07
2018-08-30T19:50:55.661Z,494.50
2018-08-30T19:53:22.751Z,538.53
2018-08-30T19:55:49.842Z,535.37
2018-08-30T19:58:17.377Z,530.23
2018-08-30T20:00:44.502Z,538.23
2018-08-30T20:03:11.710Z,537.40
2018-08-30T20:05:39.704Z,455.07
2018-08-30T20:08:06.891Z,536.57
2018-08-30T20:10:34.196Z,532.57
2018-08-30T20:13:01.852Z,537.77
2018-08-30T20:15:29.029Z,536.13
2018-08-30T20:17:56.154Z,537.93
2018-08-30T20:20:23.739Z,527.77
2018-08-30T20:22:50.900Z,487.77
2018-08-30T20:25:18.056Z,530.67
2018-08-30T20:27:45.624Z,535.77
2018-08-30T20:30:12.738Z,534.77
2018-08-30T20:32:39.861Z,541.90
2018-08-30T20:35:07.224Z,534.60
2018-08-30T20:37:34.388Z,536.83
2018-08-30T20:40:01.645Z,534.50
2018-08-30T20:42:29.212Z,461.00
2018-08-30T20:44:56.342Z,530.40
2018-08-30T20:47:23.769Z,528.23
2018-08-30T20:49:51.226Z,485.37
2018-08-30T20:52:18.361Z,535.03
2018-08-30T20:54:45.861Z,538.13
2018-08-30T20:57:13.042Z,487.53
2018-08-30T20:59:40.189Z,536.40
2018-08-30T21:02:07.594Z,460.30
2018-08-30T21:04:34.737Z,540.70
2018-08-30T21:07:02.706Z,486.40
2018-08-30T21:09:30.129Z,533.37
2018-08-30T21:11:57.421Z,486.60
2018-08-30T21:14:24.645Z,532.90
2018-08-30T21:16:52.001Z,530.50
2018-08-30T21:19:19.133Z,456.97
2018-08-30T21:21:46.250Z,532.17
2018-08-30T21:24:13.717Z,456.80
2018-08-30T21:26:40.824Z,540.67
2018-08-30T21:29:07.946Z,536.40
2018-08-30T21:31:35.680Z,530.63
2018-08-30T21:34:02.815Z,439.20
2018-08-30T21:36:29.994Z,538.37
2018-08-30T21:38:58.063Z,539.60
2018-08-30T21:41:25.165Z,532.90
2018-08-30T21:43:52.281Z,525.47
2018-08-30T21:46:19.652Z,536.37
2018-08-30T21:48:46.749Z,456.73
2018-08-30T21:51:13.877Z,528.00
2018-08-30T21:53:41.154Z,531.10
2018-08-30T21:56:08.312Z,459.00
2018-08-30T21:58:35.462Z,529.77
2018-08-30T22:01:02.869Z,519.37
2018-08-30T22:03:29.986Z,446.30
2018-08-30T22:05:57.126Z,453.27
2018-08-30T22:08:24.469Z,521.60
2018-08-30T22:10:51.573Z,527.53
2018-08-30T22:13:19.104Z,455.07
2018-08-30T22:15:46.497Z,453.00
2018-08-30T22:18:13.658Z,488.03
2018-08-30T22:20:41.035Z,536.03
2018-08-30T22:23:08.124Z,453.77
2018-08-30T22:25:35.238Z,527.70
2018-08-30T22:28:02.590Z,534.00
2018-08-30T22:30:29.708Z,539.67
2018-08-30T22:32:56.807Z,528.77
2018-08-30T22:35:24.217Z,449.33
2018-08-30T22:37:51.309Z,486.57
2018-08-30T22:40:18.460Z,537.20
2018-08-30T22:42:46.038Z,532.33
2018-08-30T22:45:13.150Z,532.60
2018-08-30T22:47:40.241Z,531.93
2018-08-30T22:50:07.506Z,527.87
2018-08-30T22:52:34.654Z,528.03
2018-08-30T22:55:01.973Z,531.03
2018-08-30T22:57:29.314Z,526.27
2018-08-30T22:59:56.414Z,453.70
2018-08-30T23:02:23.561Z,531.27
2018-08-30T23:04:50.677Z,529.47
2018-08-30T23:07:17.766Z,485.33
2018-08-30T23:09:44.881Z,457.70
2018-08-30T23:12:11.983Z,527.80
2018-08-30T23:14:39.085Z,526.77
2018-08-30T23:17:06.497Z,484.50
2018-08-30T23:19:33.638Z,528.53
2018-08-30T23:22:00.725Z,487.73
2018-08-30T23:24:28.029Z,536.83
2018-08-30T23:26:55.143Z,533.43
2018-08-30T23:29:22.253Z,533.47
2018-08-30T23:31:49.613Z,534.67
2018-08-30T23:34:16.802Z,536.13
2018-08-30T23:36:44.066Z,526.20
2018-08-30T23:39:12.261Z,531.70
2018-08-30T23:41:39.645Z,454.40
2018-08-30T23:44:07.269Z,525.73
2018-08-30T23:46:34.577Z,532.90
2018-08-30T23:49:01.744Z,529.40
2018-08-30T23:51:28.845Z,523.47
2018-08-30T23:53:56.026Z,530.47
2018-08-30T23:56:23.132Z,483.70
2018-08-30T23:59:01.902Z,529.03
